sensor_id;sensor_type;location;lat;lon;timestamp;temperature;humidity
45012;DHT22;63444;48.148;11.542;2023-03-23T00:01:28;13.00;76.40
45012;DHT22;63444;48.148;11.542;2023-03-23T00:03:57;13.00;76.40
45012;DHT22;63444;48.148;11.542;2023-03-23T00:06:24;13.10;76.60
45012;DHT22;63444;48.148;11.542;2023-03-23T00:08:52;13.00;76.80
45012;DHT22;63444;48.148;11.542;2023-03-23T00:11:24;13.00;76.70
45012;DHT22;63444;48.148;11.542;2023-03-23T00:13:52;13.10;77.40
45012;DHT22;63444;48.148;11.542;2023-03-23T00:16:21;13.00;77.70
45012;DHT22;63444;48.148;11.542;2023-03-23T00:18:57;13.00;77.30
45012;DHT22;63444;48.148;11.542;2023-03-23T00:21:24;13.00;77.40
45012;DHT22;63444;48.148;11.542;2023-03-23T00:24:08;13.00;77.80
45012;DHT22;63444;48.148;11.542;2023-03-23T00:26:36;13.00;77.90
45012;DHT22;63444;48.148;11.542;2023-03-23T00:29:06;13.00;78.30
45012;DHT22;63444;48.148;11.542;2023-03-23T00:31:32;12.90;78.60
45012;DHT22;63444;48.148;11.542;2023-03-23T00:34:00;12.80;78.80
45012;DHT22;63444;48.148;11.542;2023-03-23T00:36:27;12.80;79.30
45012;DHT22;63444;48.148;11.542;2023-03-23T00:38:54;12.70;79.20
45012;DHT22;63444;48.148;11.542;2023-03-23T00:41:23;12.80;79.50
45012;DHT22;63444;48.148;11.542;2023-03-23T00:43:52;12.60;79.80
45012;DHT22;63444;48.148;11.542;2023-03-23T00:46:18;12.60;80.10
45012;DHT22;63444;48.148;11.542;2023-03-23T00:48:46;12.60;80.20
45012;DHT22;63444;48.148;11.542;2023-03-23T00:51:12;12.60;80.60
45012;DHT22;63444;48.148;11.542;2023-03-23T00:53:39;12.50;80.70
45012;DHT22;63444;48.148;11.542;2023-03-23T00:56:06;12.60;80.60
45012;DHT22;63444;48.148;11.542;2023-03-23T00:58:32;12.60;80.70
45012;DHT22;63444;48.148;11.542;2023-03-23T01:00:58;12.70;81.00
45012;DHT22;63444;48.148;11.542;2023-03-23T01:03:23;12.70;80.70
45012;DHT22;63444;48.148;11.542;2023-03-23T01:05:52;12.80;80.60
45012;DHT22;63444;48.148;11.542;2023-03-23T01:08:18;12.80;80.40
45012;DHT22;63444;48.148;11.542;2023-03-23T01:10:45;12.80;80.60
45012;DHT22;63444;48.148;11.542;2023-03-23T01:13:11;12.80;80.50
45012;DHT22;63444;48.148;11.542;2023-03-23T01:15:37;12.80;80.80
45012;DHT22;63444;48.148;11.542;2023-03-23T01:18:03;12.60;81.00
45012;DHT22;63444;48.148;11.542;2023-03-23T01:20:29;12.70;81.20
45012;DHT22;63444;48.148;11.542;2023-03-23T01:22:57;12.60;81.40
45012;DHT22;63444;48.148;11.542;2023-03-23T01:25:30;12.60;82.30
45012;DHT22;63444;48.148;11.542;2023-03-23T01:27:57;12.60;81.50
45012;DHT22;63444;48.148;11.542;2023-03-23T01:30:23;12.60;81.40
45012;DHT22;63444;48.148;11.542;2023-03-23T01:32:50;12.60;81.50
45012;DHT22;63444;48.148;11.542;2023-03-23T01:35:17;12.60;81.70
45012;DHT22;63444;48.148;11.542;2023-03-23T01:37:43;12.60;81.80
45012;DHT22;63444;48.148;11.542;2023-03-23T01:40:09;12.60;81.90
45012;DHT22;63444;48.148;11.542;2023-03-23T01:42:37;12.60;82.00
45012;DHT22;63444;48.148;11.542;2023-03-23T01:45:23;12.50;82.20
45012;DHT22;63444;48.148;11.542;2023-03-23T01:47:58;12.50;82.40
45012;DHT22;63444;48.148;11.542;2023-03-23T01:50:26;12.40;82.70
45012;DHT22;63444;48.148;11.542;2023-03-23T01:52:56;12.40;82.90
45012;DHT22;63444;48.148;11.542;2023-03-23T01:55:25;12.30;83.10
45012;DHT22;63444;48.148;11.542;2023-03-23T01:57:54;12.30;83.10
45012;DHT22;63444;48.148;11.542;2023-03-23T02:00:20;12.30;83.10
45012;DHT22;63444;48.148;11.542;2023-03-23T02:02:50;12.40;83.10
45012;DHT22;63444;48.148;11.542;2023-03-23T02:05:28;12.60;83.00
45012;DHT22;63444;48.148;11.542;2023-03-23T02:07:57;12.40;82.80
45012;DHT22;63444;48.148;11.542;2023-03-23T02:10:29;12.50;82.60
45012;DHT22;63444;48.148;11.542;2023-03-23T02:12:55;12.60;82.40
45012;DHT22;63444;48.148;11.542;2023-03-23T02:15:21;12.50;82.20
45012;DHT22;63444;48.148;11.542;2023-03-23T02:18:17;12.60;82.30
45012;DHT22;63444;48.148;11.542;2023-03-23T02:29:36;12.50;82.70
45012;DHT22;63444;48.148;11.542;2023-03-23T02:34:49;12.50;82.70
45012;DHT22;63444;48.148;11.542;2023-03-23T02:37:28;12.40;83.20
45012;DHT22;63444;48.148;11.542;2023-03-23T02:40:06;12.30;83.30
45012;DHT22;63444;48.148;11.542;2023-03-23T02:42:39;12.30;83.50
45012;DHT22;63444;48.148;11.542;2023-03-23T02:45:07;12.30;83.50
45012;DHT22;63444;48.148;11.542;2023-03-23T02:47:35;12.30;83.70
45012;DHT22;63444;48.148;11.542;2023-03-23T02:50:03;12.30;83.80
45012;DHT22;63444;48.148;11.542;2023-03-23T02:52:31;12.30;83.80
45012;DHT22;63444;48.148;11.542;2023-03-23T02:54:59;12.30;83.80
45012;DHT22;63444;48.148;11.542;2023-03-23T02:57:25;12.30;83.90
45012;DHT22;63444;48.148;11.542;2023-03-23T02:59:52;12.20;84.20
45012;DHT22;63444;48.148;11.542;2023-03-23T03:02:25;12.30;84.40
45012;DHT22;63444;48.148;11.542;2023-03-23T03:07:39;12.20;84.60
45012;DHT22;63444;48.148;11.542;2023-03-23T03:15:56;12.10;85.10
45012;DHT22;63444;48.148;11.542;2023-03-23T03:18:29;12.20;84.80
45012;DHT22;63444;48.148;11.542;2023-03-23T03:21:00;12.20;85.10
45012;DHT22;63444;48.148;11.542;2023-03-23T03:23:28;12.20;85.10
45012;DHT22;63444;48.148;11.542;2023-03-23T03:25:55;12.20;85.20
45012;DHT22;63444;48.148;11.542;2023-03-23T03:28:23;12.10;85.10
45012;DHT22;63444;48.148;11.542;2023-03-23T03:30:55;12.10;85.20
45012;DHT22;63444;48.148;11.542;2023-03-23T03:33:23;12.10;85.30
45012;DHT22;63444;48.148;11.542;2023-03-23T03:35:54;12.10;85.60
45012;DHT22;63444;48.148;11.542;2023-03-23T03:38:21;12.10;85.60
45012;DHT22;63444;48.148;11.542;2023-03-23T03:40:47;12.10;85.60
45012;DHT22;63444;48.148;11.542;2023-03-23T03:43:12;12.20;85.50
45012;DHT22;63444;48.148;11.542;2023-03-23T03:45:38;12.20;85.50
45012;DHT22;63444;48.148;11.542;2023-03-23T03:48:06;12.20;85.50
45012;DHT22;63444;48.148;11.542;2023-03-23T03:50:31;12.20;85.50
45012;DHT22;63444;48.148;11.542;2023-03-23T03:52:57;12.30;85.50
45012;DHT22;63444;48.148;11.542;2023-03-23T03:55:23;12.30;85.30
45012;DHT22;63444;48.148;11.542;2023-03-23T03:57:49;12.30;85.30
45012;DHT22;63444;48.148;11.542;2023-03-23T04:00:15;12.30;85.40
45012;DHT22;63444;48.148;11.542;2023-03-23T04:02:46;12.30;85.30
45012;DHT22;63444;48.148;11.542;2023-03-23T04:05:15;12.30;85.50
45012;DHT22;63444;48.148;11.542;2023-03-23T04:07:41;12.30;85.50
45012;DHT22;63444;48.148;11.542;2023-03-23T04:10:12;12.20;85.70
45012;DHT22;63444;48.148;11.542;2023-03-23T04:12:38;12.20;85.70
45012;DHT22;63444;48.148;11.542;2023-03-23T04:15:06;12.30;85.70
45012;DHT22;63444;48.148;11.542;2023-03-23T04:17:33;12.30;85.60
45012;DHT22;63444;48.148;11.542;2023-03-23T04:19:59;12.30;85.60
45012;DHT22;63444;48.148;11.542;2023-03-23T04:22:28;12.30;85.70
45012;DHT22;63444;48.148;11.542;2023-03-23T04:24:58;12.20;86.00
45012;DHT22;63444;48.148;11.542;2023-03-23T04:27:28;12.10;86.20
45012;DHT22;63444;48.148;11.542;2023-03-23T04:29:57;12.10;86.40
45012;DHT22;63444;48.148;11.542;2023-03-23T04:32:25;12.00;86.90
45012;DHT22;63444;48.148;11.542;2023-03-23T04:34:58;11.90;87.20
45012;DHT22;63444;48.148;11.542;2023-03-23T04:37:28;11.90;87.30
45012;DHT22;63444;48.148;11.542;2023-03-23T04:39:59;11.90;87.60
45012;DHT22;63444;48.148;11.542;2023-03-23T04:42:34;11.90;87.70
45012;DHT22;63444;48.148;11.542;2023-03-23T04:45:01;11.90;87.70
45012;DHT22;63444;48.148;11.542;2023-03-23T04:47:30;11.90;87.70
45012;DHT22;63444;48.148;11.542;2023-03-23T04:50:14;11.90;87.80
45012;DHT22;63444;48.148;11.542;2023-03-23T04:52:40;11.90;88.10
45012;DHT22;63444;48.148;11.542;2023-03-23T04:55:10;11.90;88.30
45012;DHT22;63444;48.148;11.542;2023-03-23T04:57:37;11.80;88.50
45012;DHT22;63444;48.148;11.542;2023-03-23T05:00:04;11.80;88.70
45012;DHT22;63444;48.148;11.542;2023-03-23T05:02:36;11.80;88.80
45012;DHT22;63444;48.148;11.542;2023-03-23T05:05:02;11.70;88.90
45012;DHT22;63444;48.148;11.542;2023-03-23T05:07:28;11.80;89.00
45012;DHT22;63444;48.148;11.542;2023-03-23T05:09:54;11.80;89.30
45012;DHT22;63444;48.148;11.542;2023-03-23T05:12:19;11.70;89.20
45012;DHT22;63444;48.148;11.542;2023-03-23T05:14:45;11.80;89.20
45012;DHT22;63444;48.148;11.542;2023-03-23T05:17:10;11.80;89.40
45012;DHT22;63444;48.148;11.542;2023-03-23T05:19:37;11.80;89.40
45012;DHT22;63444;48.148;11.542;2023-03-23T05:22:03;11.80;89.30
45012;DHT22;63444;48.148;11.542;2023-03-23T05:24:32;11.80;89.30
45012;DHT22;63444;48.148;11.542;2023-03-23T05:27:01;11.90;89.50
45012;DHT22;63444;48.148;11.542;2023-03-23T05:29:27;11.70;89.60
45012;DHT22;63444;48.148;11.542;2023-03-23T05:31:55;11.70;89.80
45012;DHT22;63444;48.148;11.542;2023-03-23T05:34:21;11.80;90.10
45012;DHT22;63444;48.148;11.542;2023-03-23T05:36:46;11.70;90.20
45012;DHT22;63444;48.148;11.542;2023-03-23T05:39:12;11.50;90.30
45012;DHT22;63444;48.148;11.542;2023-03-23T05:41:38;11.50;90.50
45012;DHT22;63444;48.148;11.542;2023-03-23T05:44:04;11.40;90.60
45012;DHT22;63444;48.148;11.542;2023-03-23T05:46:30;11.40;90.60
45012;DHT22;63444;48.148;11.542;2023-03-23T05:48:56;11.50;90.60
45012;DHT22;63444;48.148;11.542;2023-03-23T05:51:21;11.50;90.50
45012;DHT22;63444;48.148;11.542;2023-03-23T05:53:47;11.60;90.40
45012;DHT22;63444;48.148;11.542;2023-03-23T05:56:13;11.70;90.40
45012;DHT22;63444;48.148;11.542;2023-03-23T05:58:40;11.80;90.40
45012;DHT22;63444;48.148;11.542;2023-03-23T06:01:07;11.90;90.30
45012;DHT22;63444;48.148;11.542;2023-03-23T06:03:32;11.90;90.20
45012;DHT22;63444;48.148;11.542;2023-03-23T06:05:58;11.90;90.20
45012;DHT22;63444;48.148;11.542;2023-03-23T06:08:24;11.90;90.30
45012;DHT22;63444;48.148;11.542;2023-03-23T06:10:49;11.90;90.40
45012;DHT22;63444;48.148;11.542;2023-03-23T06:13:16;11.90;90.20
45012;DHT22;63444;48.148;11.542;2023-03-23T06:15:41;12.00;90.30
45012;DHT22;63444;48.148;11.542;2023-03-23T06:18:07;12.00;90.30
45012;DHT22;63444;48.148;11.542;2023-03-23T06:20:33;12.00;90.30
45012;DHT22;63444;48.148;11.542;2023-03-23T06:23:00;12.10;90.40
45012;DHT22;63444;48.148;11.542;2023-03-23T06:25:27;12.00;90.40
45012;DHT22;63444;48.148;11.542;2023-03-23T06:27:52;12.00;90.50
45012;DHT22;63444;48.148;11.542;2023-03-23T06:30:18;12.00;90.50
45012;DHT22;63444;48.148;11.542;2023-03-23T06:32:44;12.10;90.50
45012;DHT22;63444;48.148;11.542;2023-03-23T06:35:15;12.10;90.50
45012;DHT22;63444;48.148;11.542;2023-03-23T06:37:41;12.00;90.50
45012;DHT22;63444;48.148;11.542;2023-03-23T06:40:08;12.10;90.50
45012;DHT22;63444;48.148;11.542;2023-03-23T06:42:35;12.10;90.40
45012;DHT22;63444;48.148;11.542;2023-03-23T06:45:03;12.10;90.30
45012;DHT22;63444;48.148;11.542;2023-03-23T06:47:30;12.10;90.30
45012;DHT22;63444;48.148;11.542;2023-03-23T06:49:56;12.20;90.40
45012;DHT22;63444;48.148;11.542;2023-03-23T06:52:23;12.20;90.40
45012;DHT22;63444;48.148;11.542;2023-03-23T06:54:49;12.30;90.50
45012;DHT22;63444;48.148;11.542;2023-03-23T06:57:16;12.30;90.50
45012;DHT22;63444;48.148;11.542;2023-03-23T06:59:42;12.30;90.50
45012;DHT22;63444;48.148;11.542;2023-03-23T07:02:12;12.30;90.40
45012;DHT22;63444;48.148;11.542;2023-03-23T07:04:39;12.30;90.30
45012;DHT22;63444;48.148;11.542;2023-03-23T07:07:09;12.40;90.20
45012;DHT22;63444;48.148;11.542;2023-03-23T07:09:36;12.40;90.10
45012;DHT22;63444;48.148;11.542;2023-03-23T07:12:03;12.50;90.10
45012;DHT22;63444;48.148;11.542;2023-03-23T07:14:29;12.60;90.10
45012;DHT22;63444;48.148;11.542;2023-03-23T07:16:54;12.60;90.00
45012;DHT22;63444;48.148;11.542;2023-03-23T07:19:20;12.70;89.90
45012;DHT22;63444;48.148;11.542;2023-03-23T07:21:45;12.70;89.70
45012;DHT22;63444;48.148;11.542;2023-03-23T07:24:12;12.70;89.60
45012;DHT22;63444;48.148;11.542;2023-03-23T07:26:42;12.80;89.60
45012;DHT22;63444;48.148;11.542;2023-03-23T07:29:08;12.80;89.40
45012;DHT22;63444;48.148;11.542;2023-03-23T07:31:36;12.90;89.10
45012;DHT22;63444;48.148;11.542;2023-03-23T07:34:02;13.10;88.80
45012;DHT22;63444;48.148;11.542;2023-03-23T07:36:29;13.20;88.40
45012;DHT22;63444;48.148;11.542;2023-03-23T07:38:54;13.30;87.90
45012;DHT22;63444;48.148;11.542;2023-03-23T07:41:20;13.40;87.60
45012;DHT22;63444;48.148;11.542;2023-03-23T07:43:46;13.60;87.30
45012;DHT22;63444;48.148;11.542;2023-03-23T07:46:12;13.80;86.90
45012;DHT22;63444;48.148;11.542;2023-03-23T07:48:38;14.00;86.10
45012;DHT22;63444;48.148;11.542;2023-03-23T07:51:05;14.20;85.60
45012;DHT22;63444;48.148;11.542;2023-03-23T07:53:30;14.30;84.40
45012;DHT22;63444;48.148;11.542;2023-03-23T07:55:57;14.50;84.80
45012;DHT22;63444;48.148;11.542;2023-03-23T07:58:23;14.40;84.60
45012;DHT22;63444;48.148;11.542;2023-03-23T08:00:49;14.60;84.20
45012;DHT22;63444;48.148;11.542;2023-03-23T08:03:15;14.60;83.50
45012;DHT22;63444;48.148;11.542;2023-03-23T08:05:42;14.60;82.70
45012;DHT22;63444;48.148;11.542;2023-03-23T08:08:11;14.70;82.60
45012;DHT22;63444;48.148;11.542;2023-03-23T08:10:37;14.70;83.20
45012;DHT22;63444;48.148;11.542;2023-03-23T08:13:03;14.70;83.40
45012;DHT22;63444;48.148;11.542;2023-03-23T08:15:31;14.70;83.70
45012;DHT22;63444;48.148;11.542;2023-03-23T08:17:58;14.80;83.60
45012;DHT22;63444;48.148;11.542;2023-03-23T08:20:23;14.80;83.80
45012;DHT22;63444;48.148;11.542;2023-03-23T08:22:55;14.80;83.60
45012;DHT22;63444;48.148;11.542;2023-03-23T08:25:22;14.80;83.50
45012;DHT22;63444;48.148;11.542;2023-03-23T08:27:49;14.90;83.60
45012;DHT22;63444;48.148;11.542;2023-03-23T08:30:17;14.80;83.10
45012;DHT22;63444;48.148;11.542;2023-03-23T08:32:44;14.80;83.40
45012;DHT22;63444;48.148;11.542;2023-03-23T08:35:11;14.90;83.50
45012;DHT22;63444;48.148;11.542;2023-03-23T08:37:38;14.80;83.20
45012;DHT22;63444;48.148;11.542;2023-03-23T08:40:07;14.80;82.90
45012;DHT22;63444;48.148;11.542;2023-03-23T08:42:53;14.80;82.50
45012;DHT22;63444;48.148;11.542;2023-03-23T08:45:22;14.90;82.30
45012;DHT22;63444;48.148;11.542;2023-03-23T08:47:50;14.90;82.40
45012;DHT22;63444;48.148;11.542;2023-03-23T08:50:20;15.00;81.60
45012;DHT22;63444;48.148;11.542;2023-03-23T08:52:48;15.10;81.10
45012;DHT22;63444;48.148;11.542;2023-03-23T08:55:14;15.10;80.70
45012;DHT22;63444;48.148;11.542;2023-03-23T08:57:40;15.20;80.80
45012;DHT22;63444;48.148;11.542;2023-03-23T09:00:10;15.30;80.90
45012;DHT22;63444;48.148;11.542;2023-03-23T09:02:41;15.30;80.00
45012;DHT22;63444;48.148;11.542;2023-03-23T09:05:08;15.40;79.70
45012;DHT22;63444;48.148;11.542;2023-03-23T09:07:36;15.50;79.70
45012;DHT22;63444;48.148;11.542;2023-03-23T09:10:03;15.70;79.30
45012;DHT22;63444;48.148;11.542;2023-03-23T09:12:29;16.00;79.00
45012;DHT22;63444;48.148;11.542;2023-03-23T09:14:55;16.20;79.00
45012;DHT22;63444;48.148;11.542;2023-03-23T09:17:21;16.40;78.10
45012;DHT22;63444;48.148;11.542;2023-03-23T09:19:47;16.50;77.60
45012;DHT22;63444;48.148;11.542;2023-03-23T09:22:12;16.50;77.80
45012;DHT22;63444;48.148;11.542;2023-03-23T09:24:40;16.50;77.60
45012;DHT22;63444;48.148;11.542;2023-03-23T09:27:06;16.50;77.90
45012;DHT22;63444;48.148;11.542;2023-03-23T09:29:33;16.60;78.10
45012;DHT22;63444;48.148;11.542;2023-03-23T09:31:58;16.60;77.40
45012;DHT22;63444;48.148;11.542;2023-03-23T09:34:25;16.60;77.50
45012;DHT22;63444;48.148;11.542;2023-03-23T09:36:51;16.60;77.50
45012;DHT22;63444;48.148;11.542;2023-03-23T09:39:17;16.70;77.60
45012;DHT22;63444;48.148;11.542;2023-03-23T09:42:21;16.70;78.40
45012;DHT22;63444;48.148;11.542;2023-03-23T09:45:15;16.80;77.40
45012;DHT22;63444;48.148;11.542;2023-03-23T09:50:28;17.00;77.40
45012;DHT22;63444;48.148;11.542;2023-03-23T09:53:13;17.00;77.10
45012;DHT22;63444;48.148;11.542;2023-03-23T09:55:40;17.20;76.90
45012;DHT22;63444;48.148;11.542;2023-03-23T09:58:26;17.40;76.80
45012;DHT22;63444;48.148;11.542;2023-03-23T10:03:40;17.50;76.40
45012;DHT22;63444;48.148;11.542;2023-03-23T10:06:12;17.60;76.70
45012;DHT22;63444;48.148;11.542;2023-03-23T10:08:46;17.80;76.70
45012;DHT22;63444;48.148;11.542;2023-03-23T10:11:24;18.00;76.00
45012;DHT22;63444;48.148;11.542;2023-03-23T10:16:47;18.00;74.60
45012;DHT22;63444;48.148;11.542;2023-03-23T10:19:26;17.80;74.40
45012;DHT22;63444;48.148;11.542;2023-03-23T10:21:59;17.60;75.00
45012;DHT22;63444;48.148;11.542;2023-03-23T10:27:59;17.40;75.20
45012;DHT22;63444;48.148;11.542;2023-03-23T10:30:38;17.40;75.60
45012;DHT22;63444;48.148;11.542;2023-03-23T10:35:53;17.40;75.80
45012;DHT22;63444;48.148;11.542;2023-03-23T10:38:31;17.40;75.60
45012;DHT22;63444;48.148;11.542;2023-03-23T10:41:08;17.40;73.10
45012;DHT22;63444;48.148;11.542;2023-03-23T10:43:37;17.40;72.30
45012;DHT22;63444;48.148;11.542;2023-03-23T10:46:55;17.40;71.10
45012;DHT22;63444;48.148;11.542;2023-03-23T10:48:57;17.40;71.50
45012;DHT22;63444;48.148;11.542;2023-03-23T10:51:29;17.40;71.10
45012;DHT22;63444;48.148;11.542;2023-03-23T10:53:58;17.40;71.00
45012;DHT22;63444;48.148;11.542;2023-03-23T10:56:27;17.50;71.00
45012;DHT22;63444;48.148;11.542;2023-03-23T10:58:54;17.60;70.60
45012;DHT22;63444;48.148;11.542;2023-03-23T11:01:28;17.60;70.20
45012;DHT22;63444;48.148;11.542;2023-03-23T11:03:55;17.60;70.80
45012;DHT22;63444;48.148;11.542;2023-03-23T11:06:23;17.60;70.60
45012;DHT22;63444;48.148;11.542;2023-03-23T11:08:56;17.60;70.90
45012;DHT22;63444;48.148;11.542;2023-03-23T11:11:32;17.60;70.90
45012;DHT22;63444;48.148;11.542;2023-03-23T11:14:27;17.60;71.90
45012;DHT22;63444;48.148;11.542;2023-03-23T11:17:02;17.70;71.40
45012;DHT22;63444;48.148;11.542;2023-03-23T11:19:35;17.70;71.70
45012;DHT22;63444;48.148;11.542;2023-03-23T11:24:44;17.80;72.00
45012;DHT22;63444;48.148;11.542;2023-03-23T11:27:11;17.80;71.90
45012;DHT22;63444;48.148;11.542;2023-03-23T11:29:57;17.80;72.30
45012;DHT22;63444;48.148;11.542;2023-03-23T11:32:29;17.90;71.70
45012;DHT22;63444;48.148;11.542;2023-03-23T11:35:01;18.00;71.20
45012;DHT22;63444;48.148;11.542;2023-03-23T11:37:39;18.00;70.90
45012;DHT22;63444;48.148;11.542;2023-03-23T11:42:44;18.10;71.20
45012;DHT22;63444;48.148;11.542;2023-03-23T11:45:33;18.10;71.70
45012;DHT22;63444;48.148;11.542;2023-03-23T11:51:16;18.20;71.70
45012;DHT22;63444;48.148;11.542;2023-03-23T11:58:50;18.30;70.80
45012;DHT22;63444;48.148;11.542;2023-03-23T12:04:32;18.30;70.70
45012;DHT22;63444;48.148;11.542;2023-03-23T12:07:56;18.30;70.90
45012;DHT22;63444;48.148;11.542;2023-03-23T12:10:38;18.30;70.80
45012;DHT22;63444;48.148;11.542;2023-03-23T12:15:53;18.40;70.70
45012;DHT22;63444;48.148;11.542;2023-03-23T12:43:28;19.00;67.70
45012;DHT22;63444;48.148;11.542;2023-03-23T12:49:07;19.00;67.50
45012;DHT22;63444;48.148;11.542;2023-03-23T12:54:50;18.90;67.20
45012;DHT22;63444;48.148;11.542;2023-03-23T12:57:21;18.90;67.60
45012;DHT22;63444;48.148;11.542;2023-03-23T12:59:57;19.00;66.90
45012;DHT22;63444;48.148;11.542;2023-03-23T13:10:29;18.90;65.60
45012;DHT22;63444;48.148;11.542;2023-03-23T13:12:57;18.90;65.30
45012;DHT22;63444;48.148;11.542;2023-03-23T13:24:01;18.80;64.80
45012;DHT22;63444;48.148;11.542;2023-03-23T13:26:29;18.80;65.20
45012;DHT22;63444;48.148;11.542;2023-03-23T13:31:36;18.70;65.40
45012;DHT22;63444;48.148;11.542;2023-03-23T13:36:51;18.80;66.40
45012;DHT22;63444;48.148;11.542;2023-03-23T13:39:27;18.90;66.20
45012;DHT22;63444;48.148;11.542;2023-03-23T13:47:40;19.10;68.20
45012;DHT22;63444;48.148;11.542;2023-03-23T13:52:56;19.10;69.20
45012;DHT22;63444;48.148;11.542;2023-03-23T13:55:42;19.10;69.50
45012;DHT22;63444;48.148;11.542;2023-03-23T13:58:22;19.10;69.30
45012;DHT22;63444;48.148;11.542;2023-03-23T14:01:01;19.10;69.80
45012;DHT22;63444;48.148;11.542;2023-03-23T14:03:36;19.10;70.20
45012;DHT22;63444;48.148;11.542;2023-03-23T14:06:14;19.10;70.50
45012;DHT22;63444;48.148;11.542;2023-03-23T14:08:44;19.10;70.80
45012;DHT22;63444;48.148;11.542;2023-03-23T14:11:14;19.10;71.60
45012;DHT22;63444;48.148;11.542;2023-03-23T14:16:20;19.00;70.70
45012;DHT22;63444;48.148;11.542;2023-03-23T14:18:53;18.80;69.60
45012;DHT22;63444;48.148;11.542;2023-03-23T14:21:40;18.70;69.90
45012;DHT22;63444;48.148;11.542;2023-03-23T14:24:10;18.60;70.10
45012;DHT22;63444;48.148;11.542;2023-03-23T14:26:37;18.50;69.90
45012;DHT22;63444;48.148;11.542;2023-03-23T14:29:05;18.50;70.00
45012;DHT22;63444;48.148;11.542;2023-03-23T14:31:34;18.50;70.10
45012;DHT22;63444;48.148;11.542;2023-03-23T14:34:04;18.50;70.30
45012;DHT22;63444;48.148;11.542;2023-03-23T14:36:32;18.50;70.30
45012;DHT22;63444;48.148;11.542;2023-03-23T14:39:24;18.50;70.20
45012;DHT22;63444;48.148;11.542;2023-03-23T14:41:52;18.40;70.50
45012;DHT22;63444;48.148;11.542;2023-03-23T14:44:26;18.40;70.40
45012;DHT22;63444;48.148;11.542;2023-03-23T14:46:54;18.40;70.80
45012;DHT22;63444;48.148;11.542;2023-03-23T14:49:30;18.30;70.80
45012;DHT22;63444;48.148;11.542;2023-03-23T14:52:10;18.30;71.10
45012;DHT22;63444;48.148;11.542;2023-03-23T14:54:36;18.30;71.40
45012;DHT22;63444;48.148;11.542;2023-03-23T14:59:38;18.30;72.00
45012;DHT22;63444;48.148;11.542;2023-03-23T15:02:08;18.30;72.10
45012;DHT22;63444;48.148;11.542;2023-03-23T15:04:35;18.20;71.90
45012;DHT22;63444;48.148;11.542;2023-03-23T15:07:06;18.10;72.10
45012;DHT22;63444;48.148;11.542;2023-03-23T15:09:34;18.10;72.40
45012;DHT22;63444;48.148;11.542;2023-03-23T15:12:04;17.90;73.00
45012;DHT22;63444;48.148;11.542;2023-03-23T15:14:50;18.00;73.20
45012;DHT22;63444;48.148;11.542;2023-03-23T15:17:36;18.00;73.30
45012;DHT22;63444;48.148;11.542;2023-03-23T15:20:29;18.00;73.50
45012;DHT22;63444;48.148;11.542;2023-03-23T15:22:56;18.00;74.00
45012;DHT22;63444;48.148;11.542;2023-03-23T15:30:35;18.00;74.30
45012;DHT22;63444;48.148;11.542;2023-03-23T15:33:08;18.10;74.60
45012;DHT22;63444;48.148;11.542;2023-03-23T15:35:37;18.00;74.50
45012;DHT22;63444;48.148;11.542;2023-03-23T15:38:32;17.90;75.00
45012;DHT22;63444;48.148;11.542;2023-03-23T15:41:00;17.90;75.70
45012;DHT22;63444;48.148;11.542;2023-03-23T15:43:30;17.90;76.20
45012;DHT22;63444;48.148;11.542;2023-03-23T15:45:58;17.90;76.30
45012;DHT22;63444;48.148;11.542;2023-03-23T15:48:50;17.90;76.10
45012;DHT22;63444;48.148;11.542;2023-03-23T15:51:17;17.90;76.40
45012;DHT22;63444;48.148;11.542;2023-03-23T15:53:44;17.90;76.70
45012;DHT22;63444;48.148;11.542;2023-03-23T15:56:12;17.90;76.80
45012;DHT22;63444;48.148;11.542;2023-03-23T15:58:38;17.90;76.70
45012;DHT22;63444;48.148;11.542;2023-03-23T16:01:26;17.90;76.80
45012;DHT22;63444;48.148;11.542;2023-03-23T16:04:08;17.80;76.60
45012;DHT22;63444;48.148;11.542;2023-03-23T16:06:35;17.80;76.60
45012;DHT22;63444;48.148;11.542;2023-03-23T16:09:02;17.80;76.20
45012;DHT22;63444;48.148;11.542;2023-03-23T16:11:29;17.60;76.70
45012;DHT22;63444;48.148;11.542;2023-03-23T16:13:56;17.60;76.70
45012;DHT22;63444;48.148;11.542;2023-03-23T16:16:28;17.50;76.90
45012;DHT22;63444;48.148;11.542;2023-03-23T16:18:54;17.50;77.00
45012;DHT22;63444;48.148;11.542;2023-03-23T16:21:20;17.40;77.00
45012;DHT22;63444;48.148;11.542;2023-03-23T16:23:47;17.40;76.90
45012;DHT22;63444;48.148;11.542;2023-03-23T16:26:13;17.40;77.10
45012;DHT22;63444;48.148;11.542;2023-03-23T16:28:40;17.30;78.10
45012;DHT22;63444;48.148;11.542;2023-03-23T16:31:06;17.30;79.20
45012;DHT22;63444;48.148;11.542;2023-03-23T16:33:32;17.20;78.90
45012;DHT22;63444;48.148;11.542;2023-03-23T16:35:58;17.20;80.40
45012;DHT22;63444;48.148;11.542;2023-03-23T16:38:24;17.20;81.20
45012;DHT22;63444;48.148;11.542;2023-03-23T16:40:50;17.20;82.50
45012;DHT22;63444;48.148;11.542;2023-03-23T16:43:18;17.20;82.40
45012;DHT22;63444;48.148;11.542;2023-03-23T16:45:45;17.10;81.70
45012;DHT22;63444;48.148;11.542;2023-03-23T16:48:12;17.10;82.30
45012;DHT22;63444;48.148;11.542;2023-03-23T16:50:39;17.00;83.20
45012;DHT22;63444;48.148;11.542;2023-03-23T16:53:06;17.10;83.40
45012;DHT22;63444;48.148;11.542;2023-03-23T16:55:33;17.10;84.10
45012;DHT22;63444;48.148;11.542;2023-03-23T16:57:58;17.10;83.70
45012;DHT22;63444;48.148;11.542;2023-03-23T17:00:24;17.10;84.60
45012;DHT22;63444;48.148;11.542;2023-03-23T17:02:52;17.10;84.70
45012;DHT22;63444;48.148;11.542;2023-03-23T17:05:22;17.10;84.70
45012;DHT22;63444;48.148;11.542;2023-03-23T17:07:48;17.10;85.00
45012;DHT22;63444;48.148;11.542;2023-03-23T17:10:15;17.20;84.30
45012;DHT22;63444;48.148;11.542;2023-03-23T17:12:42;17.20;84.30
45012;DHT22;63444;48.148;11.542;2023-03-23T17:15:09;17.20;84.20
45012;DHT22;63444;48.148;11.542;2023-03-23T17:17:37;17.20;84.20
45012;DHT22;63444;48.148;11.542;2023-03-23T17:20:04;17.10;84.20
45012;DHT22;63444;48.148;11.542;2023-03-23T17:22:31;17.10;84.40
45012;DHT22;63444;48.148;11.542;2023-03-23T17:24:56;17.00;84.70
45012;DHT22;63444;48.148;11.542;2023-03-23T17:27:24;16.90;84.60
45012;DHT22;63444;48.148;11.542;2023-03-23T17:29:50;16.90;84.70
45012;DHT22;63444;48.148;11.542;2023-03-23T17:32:16;16.90;84.80
45012;DHT22;63444;48.148;11.542;2023-03-23T17:34:42;17.00;85.10
45012;DHT22;63444;48.148;11.542;2023-03-23T17:37:08;17.00;85.50